sensor_id;sensor_type;location;lat;lon;timestamp;pressure;altitude;pressure_sealevel;temperature;humidity
44457;BME280;30159;49.316;8.558;2022-08-11T00:01:05;100801.63;;;23.19;48.89
44457;BME280;30159;49.316;8.558;2022-08-11T00:03:35;100799.25;;;23.17;48.81
44457;BME280;30159;49.316;8.558;2022-08-11T00:06:07;100799.03;;;23.10;48.96
44457;BME280;30159;49.316;8.558;2022-08-11T00:08:35;100798.16;;;23.06;49.19
44457;BME280;30159;49.316;8.558;2022-08-11T00:11:04;100803.69;;;23.06;49.16
44457;BME280;30159;49.316;8.558;2022-08-11T00:13:33;100795.25;;;22.99;49.23
44457;BME280;30159;49.316;8.558;2022-08-11T00:16:02;100806.69;;;23.01;49.51
44457;BME280;30159;49.316;8.558;2022-08-11T00:18:39;100792.50;;;22.99;49.48
44457;BME280;30159;49.316;8.558;2022-08-11T00:21:07;100803.50;;;22.99;49.56
44457;BME280;30159;49.316;8.558;2022-08-11T00:23:40;100796.34;;;22.98;49.65
44457;BME280;30159;49.316;8.558;2022-08-11T00:26:08;100792.50;;;22.99;49.53
44457;BME280;30159;49.316;8.558;2022-08-11T00:28:35;100797.84;;;22.95;49.50
44457;BME280;30159;49.316;8.558;2022-08-11T00:31:04;100803.34;;;22.95;49.82
44457;BME280;30159;49.316;8.558;2022-08-11T00:33:33;100792.16;;;22.88;49.97
44457;BME280;30159;49.316;8.558;2022-08-11T00:36:05;100757.72;;;22.62;49.76
44457;BME280;30159;49.316;8.558;2022-08-11T00:38:36;100803.28;;;22.91;49.88
44457;BME280;30159;49.316;8.558;2022-08-11T00:41:15;100804.34;;;22.87;50.09
44457;BME280;30159;49.316;8.558;2022-08-11T00:44:26;100795.53;;;22.81;50.35
44457;BME280;30159;49.316;8.558;2022-08-11T00:47:01;100780.50;;;22.63;50.38
44457;BME280;30159;49.316;8.558;2022-08-11T00:49:38;100800.84;;;22.74;50.29
44457;BME280;30159;49.316;8.558;2022-08-11T00:52:17;100795.34;;;22.74;50.48
44457;BME280;30159;49.316;8.558;2022-08-11T01:01:02;100800.19;;;22.65;51.00
44457;BME280;30159;49.316;8.558;2022-08-11T01:03:47;100792.22;;;22.60;50.94
44457;BME280;30159;49.316;8.558;2022-08-11T01:06:30;100794.06;;;22.56;50.86
44457;BME280;30159;49.316;8.558;2022-08-11T01:09:21;100795.75;;;22.60;50.85
44457;BME280;30159;49.316;8.558;2022-08-11T01:21:14;100789.63;;;22.51;51.36
44457;BME280;30159;49.316;8.558;2022-08-11T01:27:14;100779.53;;;22.27;51.54
44457;BME280;30159;49.316;8.558;2022-08-11T01:30:14;100801.47;;;22.39;51.64
44457;BME280;30159;49.316;8.558;2022-08-11T01:33:14;100791.75;;;22.29;51.80
44457;BME280;30159;49.316;8.558;2022-08-11T01:36:31;100795.97;;;22.39;51.70
44457;BME280;30159;49.316;8.558;2022-08-11T01:39:37;100791.97;;;22.37;51.73
44457;BME280;30159;49.316;8.558;2022-08-11T01:42:52;100786.59;;;22.28;51.78
44457;BME280;30159;49.316;8.558;2022-08-11T01:45:41;100792.47;;;22.26;52.39
44457;BME280;30159;49.316;8.558;2022-08-11T01:48:15;100791.75;;;22.29;52.27
44457;BME280;30159;49.316;8.558;2022-08-11T01:51:04;100798.25;;;22.37;52.31
44457;BME280;30159;49.316;8.558;2022-08-11T01:53:46;100802.50;;;22.35;52.23
44457;BME280;30159;49.316;8.558;2022-08-11T01:56:41;100796.22;;;22.34;52.23
44457;BME280;30159;49.316;8.558;2022-08-11T01:59:16;100802.63;;;22.38;52.21
44457;BME280;30159;49.316;8.558;2022-08-11T02:02:14;100799.41;;;22.36;52.19
44457;BME280;30159;49.316;8.558;2022-08-11T02:04:50;100815.47;;;22.34;52.54
44457;BME280;30159;49.316;8.558;2022-08-11T02:07:29;100810.88;;;22.38;52.37
44457;BME280;30159;49.316;8.558;2022-08-11T02:10:13;100805.50;;;22.29;52.50
44457;BME280;30159;49.316;8.558;2022-08-11T02:13:06;100811.47;;;22.32;52.84
44457;BME280;30159;49.316;8.558;2022-08-11T02:15:42;100811.22;;;22.37;52.76
44457;BME280;30159;49.316;8.558;2022-08-11T02:18:17;100818.28;;;22.38;52.59
44457;BME280;30159;49.316;8.558;2022-08-11T02:20:49;100799.06;;;22.38;52.63
44457;BME280;30159;49.316;8.558;2022-08-11T02:23:42;100806.97;;;22.39;52.46
44457;BME280;30159;49.316;8.558;2022-08-11T02:26:17;100796.31;;;22.38;52.72
44457;BME280;30159;49.316;8.558;2022-08-11T02:28:52;100801.72;;;22.34;52.90
44457;BME280;30159;49.316;8.558;2022-08-11T02:31:29;100778.63;;;22.23;52.64
44457;BME280;30159;49.316;8.558;2022-08-11T02:34:23;100799.41;;;22.36;52.71
44457;BME280;30159;49.316;8.558;2022-08-11T02:36:58;100804.91;;;22.36;52.92
44457;BME280;30159;49.316;8.558;2022-08-11T02:39:38;100795.06;;;22.35;52.98
44457;BME280;30159;49.316;8.558;2022-08-11T02:42:16;100802.75;;;22.29;52.98
44457;BME280;30159;49.316;8.558;2022-08-11T02:44:57;100775.31;;;22.17;53.07
44457;BME280;30159;49.316;8.558;2022-08-11T02:47:40;100803.09;;;22.28;53.03
44457;BME280;30159;49.316;8.558;2022-08-11T02:50:30;100727.78;;;21.76;53.67
44457;BME280;30159;49.316;8.558;2022-08-11T02:53:03;100799.03;;;22.22;53.11
44457;BME280;30159;49.316;8.558;2022-08-11T02:55:41;100788.66;;;22.19;53.09
44457;BME280;30159;49.316;8.558;2022-08-11T02:58:15;100785.03;;;22.15;53.19
44457;BME280;30159;49.316;8.558;2022-08-11T03:00:49;100760.50;;;21.94;53.66
44457;BME280;30159;49.316;8.558;2022-08-11T03:03:22;100736.81;;;21.77;53.56
44457;BME280;30159;49.316;8.558;2022-08-11T03:06:03;100786.69;;;22.03;53.55
44457;BME280;30159;49.316;8.558;2022-08-11T03:08:50;100790.56;;;22.02;53.75
44457;BME280;30159;49.316;8.558;2022-08-11T03:11:30;100788.38;;;21.96;53.89
44457;BME280;30159;49.316;8.558;2022-08-11T03:14:28;100795.03;;;21.95;54.08
44457;BME280;30159;49.316;8.558;2022-08-11T03:17:26;100787.75;;;21.86;54.23
44457;BME280;30159;49.316;8.558;2022-08-11T03:20:05;100789.91;;;21.81;54.31
44457;BME280;30159;49.316;8.558;2022-08-11T03:22:38;100789.13;;;21.80;54.38
44457;BME280;30159;49.316;8.558;2022-08-11T03:25:12;100796.69;;;21.71;54.64
44457;BME280;30159;49.316;8.558;2022-08-11T03:27:49;100798.19;;;21.68;54.37
44457;BME280;30159;49.316;8.558;2022-08-11T03:30:22;100801.50;;;21.62;54.80
44457;BME280;30159;49.316;8.558;2022-08-11T03:32:59;100791.09;;;21.55;54.90
44457;BME280;30159;49.316;8.558;2022-08-11T03:35:57;100773.00;;;21.42;55.24
44457;BME280;30159;49.316;8.558;2022-08-11T03:38:42;100799.56;;;21.50;55.19
44457;BME280;30159;49.316;8.558;2022-08-11T03:41:18;100802.31;;;21.50;55.23
44457;BME280;30159;49.316;8.558;2022-08-11T03:44:14;100748.50;;;21.00;55.35
44457;BME280;30159;49.316;8.558;2022-08-11T03:46:58;100758.69;;;21.12;55.11
44457;BME280;30159;49.316;8.558;2022-08-11T03:49:35;100768.19;;;21.26;55.24
44457;BME280;30159;49.316;8.558;2022-08-11T03:52:15;100807.66;;;21.46;55.41
44457;BME280;30159;49.316;8.558;2022-08-11T03:54:53;100805.50;;;21.40;55.71
44457;BME280;30159;49.316;8.558;2022-08-11T04:01:18;100812.34;;;21.21;55.99
44457;BME280;30159;49.316;8.558;2022-08-11T04:07:40;100810.00;;;20.99;56.58
44457;BME280;30159;49.316;8.558;2022-08-11T04:13:48;100806.53;;;20.77;57.23
44457;BME280;30159;49.316;8.558;2022-08-11T04:16:46;100808.19;;;20.70;57.69
44457;BME280;30159;49.316;8.558;2022-08-11T04:19:46;100812.88;;;20.69;57.87
44457;BME280;30159;49.316;8.558;2022-08-11T04:22:48;100810.34;;;20.64;58.04
44457;BME280;30159;49.316;8.558;2022-08-11T04:28:39;100812.66;;;20.53;58.49
44457;BME280;30159;49.316;8.558;2022-08-11T04:31:23;100805.94;;;20.51;58.62
44457;BME280;30159;49.316;8.558;2022-08-11T04:37:09;100820.78;;;20.50;58.77
44457;BME280;30159;49.316;8.558;2022-08-11T04:40:30;100817.25;;;20.49;59.26
44457;BME280;30159;49.316;8.558;2022-08-11T04:49:53;100823.06;;;20.48;60.25
44457;BME280;30159;49.316;8.558;2022-08-11T04:56:10;100821.56;;;20.50;60.49
44457;BME280;30159;49.316;8.558;2022-08-11T04:59:11;100829.59;;;20.55;60.07
44457;BME280;30159;49.316;8.558;2022-08-11T05:02:42;100817.63;;;20.60;60.02
44457;BME280;30159;49.316;8.558;2022-08-11T05:05:30;100830.50;;;20.80;59.56
44457;BME280;30159;49.316;8.558;2022-08-11T05:11:20;100831.41;;;21.18;59.23
44457;BME280;30159;49.316;8.558;2022-08-11T05:13:51;100839.31;;;21.93;57.89
44457;BME280;30159;49.316;8.558;2022-08-11T05:16:48;100835.38;;;23.31;54.61
44457;BME280;30159;49.316;8.558;2022-08-11T05:19:34;100843.31;;;24.97;51.77
44457;BME280;30159;49.316;8.558;2022-08-11T05:22:22;100800.41;;;26.33;49.84
44457;BME280;30159;49.316;8.558;2022-08-11T05:25:13;100833.66;;;28.11;47.01
44457;BME280;30159;49.316;8.558;2022-08-11T05:28:04;100829.19;;;29.70;44.34
44457;BME280;30159;49.316;8.558;2022-08-11T05:30:53;100835.09;;;30.88;42.60
44457;BME280;30159;49.316;8.558;2022-08-11T05:33:45;100831.53;;;31.44;41.92
44457;BME280;30159;49.316;8.558;2022-08-11T05:36:39;100837.47;;;31.49;42.22
44457;BME280;30159;49.316;8.558;2022-08-11T05:39:14;100836.00;;;31.76;41.91
44457;BME280;30159;49.316;8.558;2022-08-11T05:41:59;100839.25;;;32.43;41.80
44457;BME280;30159;49.316;8.558;2022-08-11T05:44:46;100831.00;;;33.41;40.74
44457;BME280;30159;49.316;8.558;2022-08-11T05:47:33;100828.88;;;33.92;39.50
44457;BME280;30159;49.316;8.558;2022-08-11T05:50:21;100806.94;;;34.67;38.82
44457;BME280;30159;49.316;8.558;2022-08-11T05:53:09;100825.53;;;33.57;39.72
44457;BME280;30159;49.316;8.558;2022-08-11T05:55:56;100827.34;;;34.07;39.48
44457;BME280;30159;49.316;8.558;2022-08-11T05:58:44;100809.03;;;35.28;37.61
44457;BME280;30159;49.316;8.558;2022-08-11T06:01:21;100822.63;;;36.46;36.51
44457;BME280;30159;49.316;8.558;2022-08-11T06:03:52;100831.06;;;37.45;35.03
44457;BME280;30159;49.316;8.558;2022-08-11T06:06:38;100831.44;;;38.35;34.27
44457;BME280;30159;49.316;8.558;2022-08-11T06:09:06;100828.69;;;38.45;34.43
44457;BME280;30159;49.316;8.558;2022-08-11T06:11:38;100832.00;;;37.77;33.54
44457;BME280;30159;49.316;8.558;2022-08-11T06:14:07;100812.63;;;37.79;34.30
44457;BME280;30159;49.316;8.558;2022-08-11T06:16:36;100833.28;;;37.85;34.84
44457;BME280;30159;49.316;8.558;2022-08-11T06:19:03;100835.31;;;36.51;36.36
44457;BME280;30159;49.316;8.558;2022-08-11T06:21:33;100785.06;;;35.11;36.67
44457;BME280;30159;49.316;8.558;2022-08-11T06:24:02;100820.50;;;34.84;35.57
44457;BME280;30159;49.316;8.558;2022-08-11T06:26:29;100826.13;;;35.34;35.62
44457;BME280;30159;49.316;8.558;2022-08-11T06:28:58;100822.56;;;33.88;35.81
44457;BME280;30159;49.316;8.558;2022-08-11T06:31:27;100819.72;;;32.97;37.70
44457;BME280;30159;49.316;8.558;2022-08-11T06:33:58;100836.22;;;32.61;38.46
44457;BME280;30159;49.316;8.558;2022-08-11T06:36:34;100820.44;;;31.75;38.98
44457;BME280;30159;49.316;8.558;2022-08-11T06:39:12;100797.94;;;30.54;40.32
44457;BME280;30159;49.316;8.558;2022-08-11T06:41:45;100762.75;;;30.74;40.12
44457;BME280;30159;49.316;8.558;2022-08-11T06:44:29;100826.00;;;29.64;42.06
44457;BME280;30159;49.316;8.558;2022-08-11T06:47:04;100824.84;;;30.71;40.64
44457;BME280;30159;49.316;8.558;2022-08-11T06:49:35;100810.97;;;31.23;39.93
44457;BME280;30159;49.316;8.558;2022-08-11T06:52:28;100831.38;;;30.43;40.65
44457;BME280;30159;49.316;8.558;2022-08-11T06:54:59;100824.22;;;30.42;41.45
44457;BME280;30159;49.316;8.558;2022-08-11T06:57:32;100827.16;;;29.95;41.71
44457;BME280;30159;49.316;8.558;2022-08-11T07:00:19;100827.59;;;29.76;42.52
44457;BME280;30159;49.316;8.558;2022-08-11T07:02:58;100828.69;;;30.21;41.29
44457;BME280;30159;49.316;8.558;2022-08-11T07:05:36;100825.47;;;31.04;40.75
44457;BME280;30159;49.316;8.558;2022-08-11T07:08:30;100826.13;;;31.19;40.49
44457;BME280;30159;49.316;8.558;2022-08-11T07:14:50;100823.06;;;31.55;40.05
44457;BME280;30159;49.316;8.558;2022-08-11T07:17:40;100830.25;;;32.59;39.00
44457;BME280;30159;49.316;8.558;2022-08-11T07:20:09;100837.69;;;32.96;38.02
44457;BME280;30159;49.316;8.558;2022-08-11T07:22:56;100774.91;;;32.77;38.71
44457;BME280;30159;49.316;8.558;2022-08-11T07:25:42;100836.69;;;32.56;38.51
44457;BME280;30159;49.316;8.558;2022-08-11T07:28:29;100824.91;;;31.68;39.99
44457;BME280;30159;49.316;8.558;2022-08-11T07:31:17;100813.06;;;31.12;40.09
44457;BME280;30159;49.316;8.558;2022-08-11T07:33:51;100802.59;;;30.67;40.74
44457;BME280;30159;49.316;8.558;2022-08-11T07:36:24;100827.09;;;31.50;39.97
44457;BME280;30159;49.316;8.558;2022-08-11T07:38:54;100827.88;;;32.84;38.20
44457;BME280;30159;49.316;8.558;2022-08-11T07:41:23;100773.81;;;34.05;37.15
44457;BME280;30159;49.316;8.558;2022-08-11T07:43:54;100810.50;;;34.67;36.58
44457;BME280;30159;49.316;8.558;2022-08-11T07:46:21;100818.31;;;34.19;37.22
44457;BME280;30159;49.316;8.558;2022-08-11T07:49:08;100796.44;;;32.19;39.17
44457;BME280;30159;49.316;8.558;2022-08-11T07:51:53;100824.72;;;32.55;39.22
44457;BME280;30159;49.316;8.558;2022-08-11T07:54:38;100822.66;;;33.37;37.52
44457;BME280;30159;49.316;8.558;2022-08-11T07:57:07;100836.06;;;32.99;38.85
44457;BME280;30159;49.316;8.558;2022-08-11T07:59:52;100816.00;;;31.81;39.26
44457;BME280;30159;49.316;8.558;2022-08-11T08:02:38;100834.53;;;32.67;38.87
44457;BME280;30159;49.316;8.558;2022-08-11T08:05:24;100830.44;;;30.71;40.67
44457;BME280;30159;49.316;8.558;2022-08-11T08:08:10;100823.63;;;28.98;43.56
44457;BME280;30159;49.316;8.558;2022-08-11T08:10:55;100831.97;;;28.98;44.13
44457;BME280;30159;49.316;8.558;2022-08-11T08:13:40;100837.06;;;28.78;44.08
44457;BME280;30159;49.316;8.558;2022-08-11T08:16:25;100831.06;;;28.54;45.19
44457;BME280;30159;49.316;8.558;2022-08-11T08:19:11;100839.75;;;27.76;45.42
44457;BME280;30159;49.316;8.558;2022-08-11T08:21:40;100832.44;;;27.50;46.24
44457;BME280;30159;49.316;8.558;2022-08-11T08:24:08;100830.84;;;27.04;46.56
44457;BME280;30159;49.316;8.558;2022-08-11T08:26:36;100833.88;;;26.92;47.24
44457;BME280;30159;49.316;8.558;2022-08-11T08:29:21;100791.44;;;26.77;46.63
44457;BME280;30159;49.316;8.558;2022-08-11T08:32:06;100834.84;;;27.10;46.77
44457;BME280;30159;49.316;8.558;2022-08-11T08:34:36;100844.66;;;27.01;46.91
44457;BME280;30159;49.316;8.558;2022-08-11T08:37:06;100831.66;;;26.67;47.60
44457;BME280;30159;49.316;8.558;2022-08-11T08:39:33;100821.56;;;26.86;47.22
44457;BME280;30159;49.316;8.558;2022-08-11T08:42:07;100833.69;;;27.11;47.18
44457;BME280;30159;49.316;8.558;2022-08-11T08:44:39;100834.31;;;27.35;46.54
44457;BME280;30159;49.316;8.558;2022-08-11T08:47:09;100821.97;;;27.29;46.47
44457;BME280;30159;49.316;8.558;2022-08-11T08:49:43;100819.06;;;27.15;46.30
44457;BME280;30159;49.316;8.558;2022-08-11T08:52:14;100832.50;;;26.72;47.33
44457;BME280;30159;49.316;8.558;2022-08-11T08:54:43;100818.25;;;26.69;46.91
44457;BME280;30159;49.316;8.558;2022-08-11T08:57:11;100826.78;;;26.95;47.61
44457;BME280;30159;49.316;8.558;2022-08-11T08:59:40;100814.56;;;26.99;47.10
44457;BME280;30159;49.316;8.558;2022-08-11T09:02:08;100818.00;;;27.23;46.75
44457;BME280;30159;49.316;8.558;2022-08-11T09:04:38;100828.31;;;27.26;46.92
44457;BME280;30159;49.316;8.558;2022-08-11T09:07:08;100826.88;;;27.46;46.75
44457;BME280;30159;49.316;8.558;2022-08-11T09:09:41;100839.69;;;27.69;46.23
44457;BME280;30159;49.316;8.558;2022-08-11T09:12:09;100833.50;;;27.86;46.22
44457;BME280;30159;49.316;8.558;2022-08-11T09:14:39;100833.22;;;27.50;46.08
44457;BME280;30159;49.316;8.558;2022-08-11T09:17:24;100832.91;;;27.15;46.93
44457;BME280;30159;49.316;8.558;2022-08-11T09:19:54;100833.75;;;27.19;46.75
44457;BME280;30159;49.316;8.558;2022-08-11T09:22:25;100825.56;;;26.92;47.09
44457;BME280;30159;49.316;8.558;2022-08-11T09:25:11;100825.81;;;27.17;46.71
44457;BME280;30159;49.316;8.558;2022-08-11T09:27:56;100825.31;;;27.52;46.58
44457;BME280;30159;49.316;8.558;2022-08-11T09:30:23;100831.81;;;27.74;46.12
44457;BME280;30159;49.316;8.558;2022-08-11T09:32:51;100827.09;;;27.79;45.08
44457;BME280;30159;49.316;8.558;2022-08-11T09:35:22;100832.22;;;27.73;45.38
44457;BME280;30159;49.316;8.558;2022-08-11T09:37:50;100823.53;;;27.78;45.34
44457;BME280;30159;49.316;8.558;2022-08-11T09:40:36;100820.34;;;27.76;44.58
44457;BME280;30159;49.316;8.558;2022-08-11T09:43:05;100814.78;;;27.76;44.69
44457;BME280;30159;49.316;8.558;2022-08-11T09:45:51;100830.22;;;27.70;44.92
44457;BME280;30159;49.316;8.558;2022-08-11T09:48:19;100818.72;;;27.71;44.70
44457;BME280;30159;49.316;8.558;2022-08-11T09:50:49;100778.59;;;27.47;44.73
44457;BME280;30159;49.316;8.558;2022-08-11T09:53:17;100813.72;;;27.91;44.07
44457;BME280;30159;49.316;8.558;2022-08-11T09:55:45;100821.53;;;27.75;43.40
44457;BME280;30159;49.316;8.558;2022-08-11T09:58:13;100817.22;;;27.81;43.92
44457;BME280;30159;49.316;8.558;2022-08-11T10:00:41;100812.16;;;27.90;42.89
44457;BME280;30159;49.316;8.558;2022-08-11T10:03:10;100795.16;;;28.06;42.56
44457;BME280;30159;49.316;8.558;2022-08-11T10:05:38;100800.44;;;28.33;41.72
44457;BME280;30159;49.316;8.558;2022-08-11T10:08:28;100785.44;;;28.48;41.59
44457;BME280;30159;49.316;8.558;2022-08-11T10:10:59;100798.06;;;28.35;40.74
44457;BME280;30159;49.316;8.558;2022-08-11T10:13:29;100800.75;;;28.13;41.68
44457;BME280;30159;49.316;8.558;2022-08-11T10:16:02;100780.34;;;27.77;42.39
44457;BME280;30159;49.316;8.558;2022-08-11T10:18:33;100774.88;;;27.84;41.50
44457;BME280;30159;49.316;8.558;2022-08-11T10:21:09;100794.38;;;28.02;41.13
44457;BME280;30159;49.316;8.558;2022-08-11T10:23:38;100793.22;;;28.10;40.51
44457;BME280;30159;49.316;8.558;2022-08-11T10:26:26;100784.06;;;28.06;40.71
44457;BME280;30159;49.316;8.558;2022-08-11T10:29:19;100791.72;;;28.34;40.47
44457;BME280;30159;49.316;8.558;2022-08-11T10:32:05;100787.09;;;28.67;40.58
44457;BME280;30159;49.316;8.558;2022-08-11T10:34:48;100789.88;;;28.67;39.99
44457;BME280;30159;49.316;8.558;2022-08-11T10:37:17;100768.81;;;28.52;39.84
44457;BME280;30159;49.316;8.558;2022-08-11T10:39:45;100780.69;;;28.52;40.48
44457;BME280;30159;49.316;8.558;2022-08-11T10:42:14;100763.31;;;28.77;40.68
44457;BME280;30159;49.316;8.558;2022-08-11T10:45:00;100770.06;;;28.94;39.74
44457;BME280;30159;49.316;8.558;2022-08-11T10:47:50;100758.16;;;28.93;40.30
44457;BME280;30159;49.316;8.558;2022-08-11T10:50:16;100772.03;;;28.75;40.84
44457;BME280;30159;49.316;8.558;2022-08-11T10:53:01;100764.88;;;28.74;40.76
44457;BME280;30159;49.316;8.558;2022-08-11T10:55:47;100756.16;;;28.72;40.47
44457;BME280;30159;49.316;8.558;2022-08-11T10:58:36;100774.41;;;29.02;39.85
44457;BME280;30159;49.316;8.558;2022-08-11T11:01:20;100749.00;;;28.86;40.36
44457;BME280;30159;49.316;8.558;2022-08-11T11:03:49;100749.41;;;28.66;40.96
44457;BME280;30159;49.316;8.558;2022-08-11T11:06:22;100726.41;;;28.58;41.47
44457;BME280;30159;49.316;8.558;2022-08-11T11:08:55;100748.19;;;28.53;41.08
44457;BME280;30159;49.316;8.558;2022-08-11T11:11:24;100737.47;;;28.48;41.67
44457;BME280;30159;49.316;8.558;2022-08-11T11:14:16;100693.00;;;28.33;41.92
44457;BME280;30159;49.316;8.558;2022-08-11T11:17:02;100716.09;;;28.66;41.43
44457;BME280;30159;49.316;8.558;2022-08-11T11:19:44;100722.44;;;28.92;41.18
44457;BME280;30159;49.316;8.558;2022-08-11T11:22:14;100721.25;;;29.04;40.40
44457;BME280;30159;49.316;8.558;2022-08-11T11:25:05;100718.47;;;29.25;40.18
44457;BME280;30159;49.316;8.558;2022-08-11T11:27:43;100715.28;;;29.37;39.46
44457;BME280;30159;49.316;8.558;2022-08-11T11:30:15;100703.75;;;29.32;40.04
44457;BME280;30159;49.316;8.558;2022-08-11T11:32:52;100707.72;;;29.38;39.64
44457;BME280;30159;49.316;8.558;2022-08-11T11:35:35;100706.16;;;29.30;39.68
44457;BME280;30159;49.316;8.558;2022-08-11T11:38:09;100678.38;;;29.23;38.87
44457;BME280;30159;49.316;8.558;2022-08-11T11:40:37;100596.69;;;28.84;39.04
44457;BME280;30159;49.316;8.558;2022-08-11T11:43:05;100691.34;;;29.65;39.54
44457;BME280;30159;49.316;8.558;2022-08-11T11:45:33;100699.28;;;29.67;38.85
44457;BME280;30159;49.316;8.558;2022-08-11T11:48:01;100693.44;;;29.39;38.24
44457;BME280;30159;49.316;8.558;2022-08-11T11:50:30;100684.66;;;29.48;39.12
44457;BME280;30159;49.316;8.558;2022-08-11T11:53:00;100682.22;;;29.65;38.13
44457;BME280;30159;49.316;8.558;2022-08-11T11:55:28;100632.28;;;29.39;38.24
44457;BME280;30159;49.316;8.558;2022-08-11T11:57:57;100671.91;;;29.72;37.87
44457;BME280;30159;49.316;8.558;2022-08-11T12:00:45;100664.75;;;29.75;37.64
44457;BME280;30159;49.316;8.558;2022-08-11T12:03:39;100608.47;;;29.38;37.17
44457;BME280;30159;49.316;8.558;2022-08-11T12:06:07;100657.25;;;29.50;37.38
44457;BME280;30159;49.316;8.558;2022-08-11T12:08:36;100665.53;;;29.65;36.93
44457;BME280;30159;49.316;8.558;2022-08-11T12:11:05;100656.00;;;29.66;37.57
44457;BME280;30159;49.316;8.558;2022-08-11T12:13:51;100660.00;;;29.68;36.94
44457;BME280;30159;49.316;8.558;2022-08-11T12:16:22;100658.78;;;29.66;37.75
44457;BME280;30159;49.316;8.558;2022-08-11T12:18:54;100655.22;;;29.61;37.42
44457;BME280;30159;49.316;8.558;2022-08-11T12:21:23;100655.66;;;29.56;37.06
44457;BME280;30159;49.316;8.558;2022-08-11T12:23:50;100659.94;;;29.79;37.32
44457;BME280;30159;49.316;8.558;2022-08-11T12:26:35;100661.91;;;29.82;36.80
44457;BME280;30159;49.316;8.558;2022-08-11T12:29:22;100651.59;;;29.79;37.43
44457;BME280;30159;49.316;8.558;2022-08-11T12:31:54;100644.38;;;29.92;37.56
44457;BME280;30159;49.316;8.558;2022-08-11T12:34:25;100638.06;;;29.85;37.29
44457;BME280;30159;49.316;8.558;2022-08-11T12:36:55;100596.53;;;29.45;36.87
44457;BME280;30159;49.316;8.558;2022-08-11T12:39:23;100639.31;;;29.69;36.51
44457;BME280;30159;49.316;8.558;2022-08-11T12:42:13;100628.84;;;29.98;36.59
44457;BME280;30159;49.316;8.558;2022-08-11T12:44:58;100627.13;;;30.15;36.48
44457;BME280;30159;49.316;8.558;2022-08-11T12:47:47;100634.25;;;30.20;37.27
44457;BME280;30159;49.316;8.558;2022-08-11T12:50:32;100622.06;;;29.99;37.07
44457;BME280;30159;49.316;8.558;2022-08-11T12:53:18;100628.06;;;29.94;36.59
44457;BME280;30159;49.316;8.558;2022-08-11T12:55:48;100614.94;;;29.95;36.64
44457;BME280;30159;49.316;8.558;2022-08-11T12:58:36;100626.81;;;30.06;36.66
44457;BME280;30159;49.316;8.558;2022-08-11T13:01:06;100571.75;;;29.79;36.55
44457;BME280;30159;49.316;8.558;2022-08-11T13:03:52;100614.75;;;30.31;36.64
44457;BME280;30159;49.316;8.558;2022-08-11T13:06:37;100597.66;;;30.29;37.02
44457;BME280;30159;49.316;8.558;2022-08-11T13:09:05;100606.28;;;30.41;36.76
44457;BME280;30159;49.316;8.558;2022-08-11T13:11:33;100597.53;;;30.43;36.20
44457;BME280;30159;49.316;8.558;2022-08-11T13:14:17;100601.56;;;30.38;36.32
44457;BME280;30159;49.316;8.558;2022-08-11T13:16:45;100599.31;;;30.15;36.42
44457;BME280;30159;49.316;8.558;2022-08-11T13:19:31;100587.34;;;30.18;36.67
44457;BME280;30159;49.316;8.558;2022-08-11T13:22:00;100603.63;;;30.27;36.41
44457;BME280;30159;49.316;8.558;2022-08-11T13:24:31;100597.22;;;30.34;36.62
44457;BME280;30159;49.316;8.558;2022-08-11T13:26:59;100592.03;;;30.32;36.33
44457;BME280;30159;49.316;8.558;2022-08-11T13:29:27;100589.31;;;30.29;36.36
44457;BME280;30159;49.316;8.558;2022-08-11T13:31:56;100576.97;;;30.30;35.62
44457;BME280;30159;49.316;8.558;2022-08-11T13:34:25;100558.25;;;30.34;36.04
44457;BME280;30159;49.316;8.558;2022-08-11T13:36:54;100544.75;;;30.25;36.11
44457;BME280;30159;49.316;8.558;2022-08-11T13:39:26;100574.19;;;30.71;36.16
44457;BME280;30159;49.316;8.558;2022-08-11T13:41:54;100579.16;;;30.53;35.97
44457;BME280;30159;49.316;8.558;2022-08-11T13:44:23;100582.06;;;30.38;35.89
44457;BME280;30159;49.316;8.558;2022-08-11T13:46:52;100573.31;;;30.36;36.50
44457;BME280;30159;49.316;8.558;2022-08-11T13:49:21;100572.47;;;30.43;36.38
44457;BME280;30159;49.316;8.558;2022-08-11T13:51:49;100577.66;;;30.44;36.72
44457;BME280;30159;49.316;8.558;2022-08-11T13:54:20;100577.56;;;30.52;36.27
44457;BME280;30159;49.316;8.558;2022-08-11T13:56:50;100575.53;;;30.56;35.66
44457;BME280;30159;49.316;8.558;2022-08-11T13:59:20;100569.16;;;30.59;36.35
44457;BME280;30159;49.316;8.558;2022-08-11T14:01:49;100525.28;;;30.25;36.24
44457;BME280;30159;49.316;8.558;2022-08-11T14:04:22;100571.41;;;30.71;35.93
44457;BME280;30159;49.316;8.558;2022-08-11T14:06:52;100569.09;;;30.66;36.04
44457;BME280;30159;49.316;8.558;2022-08-11T14:09:24;100553.91;;;30.71;35.95
44457;BME280;30159;49.316;8.558;2022-08-11T14:11:56;100552.63;;;30.79;35.62
44457;BME280;30159;49.316;8.558;2022-08-11T14:14:41;100555.91;;;30.70;36.28
44457;BME280;30159;49.316;8.558;2022-08-11T14:17:09;100550.75;;;30.69;35.73
44457;BME280;30159;49.316;8.558;2022-08-11T14:19:39;100555.22;;;30.59;35.61
44457;BME280;30159;49.316;8.558;2022-08-11T14:22:07;100541.06;;;30.42;35.86
44457;BME280;30159;49.316;8.558;2022-08-11T14:24:36;100527.94;;;30.43;35.88
44457;BME280;30159;49.316;8.558;2022-08-11T14:27:05;100533.84;;;30.49;35.62
44457;BME280;30159;49.316;8.558;2022-08-11T14:29:33;100526.28;;;30.49;36.40
44457;BME280;30159;49.316;8.558;2022-08-11T14:32:05;100530.66;;;30.46;35.25
44457;BME280;30159;49.316;8.558;2022-08-11T14:34:34;100512.31;;;30.56;36.50
44457;BME280;30159;49.316;8.558;2022-08-11T14:37:03;100527.94;;;30.84;35.47
44457;BME280;30159;49.316;8.558;2022-08-11T14:39:33;100484.03;;;30.58;35.56